createdAt,value
2024-01-20T00:02:25.859Z,12.39
2024-01-20T00:04:52.767Z,12.38
2024-01-20T00:07:20.315Z,12.38
2024-01-20T00:09:51.128Z,12.37
2024-01-20T00:12:19.461Z,12.36
2024-01-20T00:14:46.440Z,12.36
2024-01-20T00:17:23.490Z,12.35
2024-01-20T00:19:54.449Z,12.35
2024-01-20T00:22:23.720Z,12.35
2024-01-20T00:24:51.002Z,12.35
2024-01-20T00:27:20.137Z,12.36
2024-01-20T00:29:47.146Z,12.35
2024-01-20T00:32:14.863Z,12.35
2024-01-20T00:34:51.631Z,12.36
2024-01-20T00:37:27.129Z,12.36
2024-01-20T00:39:53.808Z,12.36
2024-01-20T00:42:20.366Z,12.37
2024-01-20T00:44:46.863Z,12.38
2024-01-20T00:47:13.505Z,12.37
2024-01-20T00:49:40.385Z,12.37
2024-01-20T00:52:07.075Z,12.38
2024-01-20T00:54:33.718Z,12.38
2024-01-20T00:57:00.250Z,12.38
2024-01-20T00:59:26.789Z,12.38
2024-01-20T01:01:53.353Z,12.38
2024-01-20T01:04:20.575Z,12.39
2024-01-20T01:06:47.239Z,12.38
2024-01-20T01:09:13.745Z,12.38
2024-01-20T01:11:40.173Z,12.38
2024-01-20T01:14:06.746Z,12.39
2024-01-20T01:16:33.346Z,12.39
2024-01-20T01:19:00.078Z,12.38
2024-01-20T01:21:26.617Z,12.38
2024-01-20T01:23:53.272Z,12.38
2024-01-20T01:26:20.822Z,12.37
2024-01-20T01:28:47.478Z,12.38
2024-01-20T01:31:14.193Z,12.37
2024-01-20T01:33:40.881Z,12.37
2024-01-20T01:36:07.793Z,12.36
2024-01-20T01:38:34.400Z,12.36
2024-01-20T01:41:01.220Z,12.35
2024-01-20T01:43:28.186Z,12.35
2024-01-20T01:45:54.716Z,12.35
2024-01-20T01:48:21.847Z,12.35
2024-01-20T01:50:49.427Z,12.34
2024-01-20T01:53:15.957Z,12.34
2024-01-20T01:55:44.540Z,12.33
2024-01-20T01:58:11.173Z,12.32
2024-01-20T02:00:38.082Z,12.32
2024-01-20T02:03:05.103Z,12.32
2024-01-20T02:05:31.690Z,12.32
2024-01-20T02:07:58.431Z,12.32
2024-01-20T02:10:24.968Z,12.31
2024-01-20T02:12:51.706Z,12.31
2024-01-20T02:15:18.992Z,12.31
2024-01-20T02:17:55.748Z,12.31
2024-01-20T02:20:23.697Z,12.30
2024-01-20T02:22:50.439Z,12.30
2024-01-20T02:25:16.977Z,12.31
2024-01-20T02:27:43.508Z,12.31
2024-01-20T02:30:10.586Z,12.31
2024-01-20T02:32:37.436Z,12.31
2024-01-20T02:35:04.662Z,12.31
2024-01-20T02:37:31.476Z,12.31
2024-01-20T02:39:58.144Z,12.31
2024-01-20T02:42:24.763Z,12.32
2024-01-20T02:44:51.657Z,12.32
2024-01-20T02:47:18.639Z,12.32
2024-01-20T02:49:45.261Z,12.32
2024-01-20T02:52:11.934Z,12.32
2024-01-20T02:54:38.599Z,12.33
2024-01-20T02:57:05.420Z,12.33
2024-01-20T02:59:31.930Z,12.33
2024-01-20T03:01:59.076Z,12.34
2024-01-20T03:04:25.694Z,12.34
2024-01-20T03:06:52.263Z,12.34
2024-01-20T03:09:18.971Z,12.35
2024-01-20T03:11:45.735Z,12.35
2024-01-20T03:14:12.590Z,12.35
2024-01-20T03:16:39.425Z,12.35
2024-01-20T03:19:06.820Z,12.35
2024-01-20T03:21:34.677Z,12.35
2024-01-20T03:24:01.460Z,12.35
2024-01-20T03:26:28.314Z,12.36
2024-01-20T03:28:54.965Z,12.36
2024-01-20T03:31:21.488Z,12.35
2024-01-20T03:33:48.373Z,12.35
2024-01-20T03:36:15.251Z,12.36
2024-01-20T03:38:41.809Z,12.36
2024-01-20T03:41:08.346Z,12.35
2024-01-20T03:43:34.974Z,12.35
2024-01-20T03:46:01.631Z,12.35
2024-01-20T03:48:28.774Z,12.35
2024-01-20T03:50:55.664Z,12.36
2024-01-20T03:53:22.235Z,12.36
2024-01-20T03:55:48.942Z,12.36
2024-01-20T03:58:15.509Z,12.36
2024-01-20T04:00:44.013Z,12.36
2024-01-20T04:03:10.756Z,12.38
2024-01-20T04:05:39.871Z,12.38
2024-01-20T04:08:06.356Z,12.38
2024-01-20T04:10:32.991Z,12.38
2024-01-20T04:12:59.522Z,12.39
2024-01-20T04:15:26.201Z,12.40
2024-01-20T04:17:53.593Z,12.40
2024-01-20T04:20:20.384Z,12.41
2024-01-20T04:22:47.095Z,12.42
2024-01-20T04:25:13.730Z,12.42
2024-01-20T04:27:41.384Z,12.42
2024-01-20T04:30:09.673Z,12.43
2024-01-20T04:32:36.945Z,12.44
2024-01-20T04:35:05.203Z,12.44
2024-01-20T04:37:31.738Z,12.44
2024-01-20T04:39:59.798Z,12.45
2024-01-20T04:42:26.321Z,12.45
2024-01-20T04:44:52.963Z,12.46
2024-01-20T04:47:19.705Z,12.46
2024-01-20T04:49:46.256Z,12.47
2024-01-20T04:52:12.982Z,12.47
2024-01-20T04:54:39.522Z,12.47
2024-01-20T04:57:06.091Z,12.48
2024-01-20T04:59:32.678Z,12.48
2024-01-20T05:01:59.214Z,12.49
2024-01-20T05:04:25.757Z,12.49
2024-01-20T05:06:52.421Z,12.50
2024-01-20T05:09:19.186Z,12.50
2024-01-20T05:11:45.757Z,12.51
2024-01-20T05:14:12.398Z,12.51
2024-01-20T05:16:39.032Z,12.51
2024-01-20T05:19:05.946Z,12.51
2024-01-20T05:21:32.756Z,12.52
2024-01-20T05:23:59.795Z,12.52
2024-01-20T05:26:26.396Z,12.52
2024-01-20T05:28:52.932Z,12.53
2024-01-20T05:31:19.670Z,12.53
2024-01-20T05:33:46.432Z,12.53
2024-01-20T05:36:13.750Z,12.54
2024-01-20T05:38:40.602Z,12.54
2024-01-20T05:41:08.476Z,12.55
2024-01-20T05:43:34.999Z,12.55
2024-01-20T05:46:07.837Z,12.55
2024-01-20T05:48:35.475Z,12.56
2024-01-20T05:51:02.417Z,12.55
2024-01-20T05:53:29.231Z,12.56
2024-01-20T05:55:55.781Z,12.56
2024-01-20T05:58:22.704Z,12.57
2024-01-20T06:00:49.401Z,12.57
2024-01-20T06:03:16.099Z,12.58
2024-01-20T06:05:42.751Z,12.59
2024-01-20T06:08:09.685Z,12.59
2024-01-20T06:10:36.312Z,12.60
2024-01-20T06:13:02.939Z,12.60
2024-01-20T06:15:29.882Z,12.61
2024-01-20T06:17:56.594Z,12.61
2024-01-20T06:20:23.259Z,12.61
2024-01-20T06:22:49.705Z,12.62
2024-01-20T06:25:16.228Z,12.62
2024-01-20T06:27:43.063Z,12.62
2024-01-20T06:30:10.450Z,12.63
2024-01-20T06:32:37.092Z,12.64
2024-01-20T06:35:04.312Z,12.64
2024-01-20T06:37:31.047Z,12.64
2024-01-20T06:39:57.598Z,12.65
2024-01-20T06:42:24.108Z,12.66
2024-01-20T06:44:50.542Z,12.66
2024-01-20T06:47:17.182Z,12.67
2024-01-20T06:49:50.203Z,12.68
2024-01-20T06:52:17.315Z,12.68
2024-01-20T06:54:44.456Z,12.69
2024-01-20T06:57:11.365Z,12.69
2024-01-20T06:59:38.246Z,12.70
2024-01-20T07:02:04.746Z,12.71
2024-01-20T07:04:31.670Z,12.71
2024-01-20T07:06:58.353Z,12.72
2024-01-20T07:09:26.226Z,12.72
2024-01-20T07:11:56.226Z,12.73
2024-01-20T07:14:24.515Z,12.74
2024-01-20T07:16:51.246Z,12.74
2024-01-20T07:19:18.028Z,12.74
2024-01-20T07:21:44.522Z,12.75
2024-01-20T07:24:11.213Z,12.75
2024-01-20T07:26:37.899Z,12.75
2024-01-20T07:29:04.445Z,12.76
2024-01-20T07:31:30.971Z,12.76
2024-01-20T07:33:57.673Z,12.78
2024-01-20T07:36:24.483Z,12.78
2024-01-20T07:38:51.181Z,12.78
2024-01-20T07:41:19.053Z,12.79
2024-01-20T07:43:45.793Z,12.79
2024-01-20T07:46:13.359Z,12.80
2024-01-20T07:48:40.065Z,12.80
2024-01-20T07:51:06.928Z,12.81
2024-01-20T07:53:33.579Z,12.81
2024-01-20T07:56:00.120Z,12.82
2024-01-20T07:58:26.839Z,12.82
2024-01-20T08:00:53.474Z,12.83
2024-01-20T08:03:20.269Z,12.83
2024-01-20T08:05:47.243Z,12.84
2024-01-20T08:08:14.026Z,12.84
2024-01-20T08:10:40.740Z,12.85
2024-01-20T08:13:07.474Z,12.85
2024-01-20T08:15:34.096Z,12.86
2024-01-20T08:18:00.914Z,12.86
2024-01-20T08:20:28.204Z,12.87
2024-01-20T08:22:54.734Z,12.88
2024-01-20T08:25:21.266Z,12.88
2024-01-20T08:27:47.803Z,12.89
2024-01-20T08:30:15.338Z,12.89
2024-01-20T08:32:42.398Z,12.90
2024-01-20T08:35:10.684Z,12.90
2024-01-20T08:37:37.313Z,12.92
2024-01-20T08:40:04.488Z,12.92
2024-01-20T08:42:31.401Z,12.92
2024-01-20T08:44:58.281Z,12.92
2024-01-20T08:47:24.886Z,12.93
2024-01-20T08:49:52.562Z,12.93
2024-01-20T08:52:19.496Z,12.93
2024-01-20T08:54:46.127Z,12.94
2024-01-20T08:57:12.694Z,12.94
2024-01-20T08:59:39.708Z,12.94
2024-01-20T09:02:06.747Z,12.95
2024-01-20T09:04:33.287Z,12.95
2024-01-20T09:07:00.071Z,12.96
2024-01-20T09:09:26.800Z,12.96
2024-01-20T09:11:53.317Z,12.96
2024-01-20T09:14:19.856Z,12.96
2024-01-20T09:16:46.572Z,12.97
2024-01-20T09:19:13.229Z,12.98
2024-01-20T09:21:39.883Z,12.98
2024-01-20T09:24:07.036Z,12.98
2024-01-20T09:26:33.718Z,12.99
2024-01-20T09:29:01.069Z,13.00
2024-01-20T09:31:27.668Z,13.00
2024-01-20T09:33:54.326Z,13.01
2024-01-20T09:36:21.036Z,13.01
2024-01-20T09:38:47.607Z,13.02
2024-01-20T09:41:14.149Z,13.03
2024-01-20T09:43:40.831Z,13.03
2024-01-20T09:46:07.719Z,13.04
2024-01-20T09:48:34.506Z,13.06
2024-01-20T09:51:01.315Z,13.06
2024-01-20T09:53:27.831Z,13.07
2024-01-20T09:55:54.466Z,13.08
2024-01-20T09:58:21.511Z,13.08
2024-01-20T10:00:48.523Z,13.09
2024-01-20T10:03:15.944Z,13.09
2024-01-20T10:05:42.671Z,13.09
2024-01-20T10:08:09.604Z,13.10
2024-01-20T10:10:36.158Z,13.11
2024-01-20T10:13:03.476Z,13.11
2024-01-20T10:15:35.110Z,13.12
2024-01-20T10:18:09.673Z,13.12
2024-01-20T10:20:36.818Z,13.13
2024-01-20T10:23:04.977Z,13.13
2024-01-20T10:25:31.602Z,13.14
2024-01-20T10:27:59.575Z,13.14
2024-01-20T10:30:26.165Z,13.15
2024-01-20T10:33:04.052Z,13.15
2024-01-20T10:35:35.896Z,13.15
2024-01-20T10:38:03.339Z,13.16
2024-01-20T10:40:30.181Z,13.16
2024-01-20T10:43:07.329Z,13.17
2024-01-20T10:45:34.348Z,13.18
2024-01-20T10:48:18.449Z,13.19
2024-01-20T10:50:48.909Z,13.18
2024-01-20T10:53:15.420Z,13.18
2024-01-20T10:55:42.104Z,13.18
2024-01-20T10:58:08.792Z,13.18
2024-01-20T11:00:35.730Z,13.19
2024-01-20T11:03:02.551Z,13.18
2024-01-20T11:05:29.419Z,13.18
2024-01-20T11:07:57.808Z,13.19
2024-01-20T11:10:24.756Z,13.19
2024-01-20T11:13:03.990Z,13.19
2024-01-20T11:15:31.271Z,13.19
2024-01-20T11:17:58.624Z,13.19
2024-01-20T11:20:26.356Z,13.18
2024-01-20T11:22:53.504Z,13.18
2024-01-20T11:25:20.355Z,13.18
2024-01-20T11:27:52.011Z,13.19
2024-01-20T11:30:26.412Z,13.18
2024-01-20T11:32:53.927Z,13.18
2024-01-20T11:35:20.617Z,13.19
2024-01-20T11:37:47.154Z,13.18
2024-01-20T11:40:13.797Z,13.18
2024-01-20T11:42:40.341Z,13.18
2024-01-20T11:45:07.685Z,13.19
2024-01-20T11:47:35.247Z,13.20
2024-01-20T11:50:01.909Z,13.21
2024-01-20T11:52:28.911Z,13.21
2024-01-20T11:54:55.679Z,13.22
2024-01-20T11:57:32.400Z,13.22
2024-01-20T11:59:59.345Z,13.23
2024-01-20T12:02:26.422Z,13.22
2024-01-20T12:04:59.700Z,13.22
2024-01-20T12:07:29.078Z,13.22
2024-01-20T12:09:55.642Z,13.21
2024-01-20T12:12:23.654Z,13.20
2024-01-20T12:14:50.248Z,13.21
2024-01-20T12:17:16.884Z,13.20
2024-01-20T12:19:44.206Z,13.20
2024-01-20T12:22:12.790Z,13.20
2024-01-20T12:24:41.012Z,13.20
2024-01-20T12:27:07.562Z,13.19
2024-01-20T12:29:34.173Z,13.18
2024-01-20T12:32:00.801Z,13.18
2024-01-20T12:34:27.502Z,13.17
2024-01-20T12:36:54.820Z,13.16
2024-01-20T12:39:22.188Z,13.16
2024-01-20T12:41:49.187Z,13.15
2024-01-20T12:44:16.952Z,13.14
2024-01-20T12:46:43.673Z,13.13
2024-01-20T12:49:10.382Z,13.12
2024-01-20T12:51:37.213Z,13.12
2024-01-20T12:54:04.500Z,13.11
2024-01-20T12:56:31.270Z,13.10
2024-01-20T12:58:57.895Z,13.08
2024-01-20T13:01:26.488Z,13.08
2024-01-20T13:03:54.472Z,13.07
2024-01-20T13:06:21.450Z,13.05
2024-01-20T13:08:48.340Z,13.04
2024-01-20T13:11:14.872Z,13.03
2024-01-20T13:13:42.363Z,13.01
2024-01-20T13:16:09.485Z,13.00
2024-01-20T13:18:36.731Z,12.99
2024-01-20T13:21:04.023Z,12.98
2024-01-20T13:23:30.806Z,12.96
2024-01-20T13:25:57.650Z,12.96
2024-01-20T13:28:24.705Z,12.94
2024-01-20T13:30:54.086Z,12.93
2024-01-20T13:33:20.773Z,12.93
2024-01-20T13:35:47.466Z,12.92
2024-01-20T13:38:14.016Z,12.91
2024-01-20T13:40:40.947Z,12.91
2024-01-20T13:43:07.583Z,12.91
2024-01-20T13:45:34.955Z,12.90
2024-01-20T13:48:01.627Z,12.90
2024-01-20T13:50:28.629Z,12.90
2024-01-20T13:52:56.597Z,12.90
2024-01-20T13:55:23.231Z,12.90
2024-01-20T13:57:49.888Z,12.89
2024-01-20T14:00:17.074Z,12.89
2024-01-20T14:02:45.081Z,12.89
2024-01-20T14:05:14.377Z,12.89
2024-01-20T14:07:41.325Z,12.89
2024-01-20T14:10:09.099Z,12.88
2024-01-20T14:12:35.748Z,12.88
2024-01-20T14:15:02.974Z,12.88
2024-01-20T14:17:29.718Z,12.87
2024-01-20T14:19:56.472Z,12.87
2024-01-20T14:22:23.505Z,12.87
2024-01-20T14:24:51.465Z,12.86
2024-01-20T14:27:18.034Z,12.85
2024-01-20T14:29:44.537Z,12.84
2024-01-20T14:32:11.684Z,12.84
2024-01-20T14:34:38.384Z,12.83
2024-01-20T14:37:07.711Z,12.83
2024-01-20T14:39:35.206Z,12.82
2024-01-20T14:42:02.617Z,12.81
2024-01-20T14:44:29.525Z,12.80
2024-01-20T14:46:56.209Z,12.80
2024-01-20T14:49:23.466Z,12.79
2024-01-20T14:51:50.548Z,12.78
2024-01-20T14:54:17.551Z,12.78
2024-01-20T14:56:44.292Z,12.77
2024-01-20T14:59:10.950Z,12.76
2024-01-20T15:01:37.849Z,12.75
2024-01-20T15:04:05.465Z,12.74
2024-01-20T15:06:32.321Z,12.75
2024-01-20T15:08:59.347Z,12.74
2024-01-20T15:11:26.365Z,12.73
2024-01-20T15:13:52.905Z,12.73
2024-01-20T15:16:19.436Z,12.72
2024-01-20T15:18:46.031Z,12.72
2024-01-20T15:21:12.633Z,12.72
2024-01-20T15:23:39.349Z,12.72
2024-01-20T15:26:05.980Z,12.71
2024-01-20T15:28:32.716Z,12.71
2024-01-20T15:30:59.258Z,12.71
2024-01-20T15:33:25.989Z,12.70
2024-01-20T15:35:52.727Z,12.70
2024-01-20T15:38:19.376Z,12.70
2024-01-20T15:40:45.946Z,12.69
2024-01-20T15:43:12.537Z,12.70
2024-01-20T15:45:39.273Z,12.69
2024-01-20T15:48:06.256Z,12.69
2024-01-20T15:50:33.262Z,12.69
2024-01-20T15:52:59.903Z,12.69
2024-01-20T15:55:26.746Z,12.68
2024-01-20T15:57:53.381Z,12.68
2024-01-20T16:00:20.105Z,12.68
2024-01-20T16:02:47.271Z,12.68
2024-01-20T16:05:13.795Z,12.68
2024-01-20T16:07:40.438Z,12.67
2024-01-20T16:10:07.690Z,12.67
2024-01-20T16:12:34.752Z,12.67
2024-01-20T16:15:01.511Z,12.67
2024-01-20T16:17:28.631Z,12.66
2024-01-20T16:19:55.451Z,12.67
2024-01-20T16:22:21.990Z,12.66
2024-01-20T16:24:48.616Z,12.67
2024-01-20T16:27:15.287Z,12.66
2024-01-20T16:29:41.915Z,12.66
2024-01-20T16:32:10.183Z,12.66
2024-01-20T16:34:36.859Z,12.66
2024-01-20T16:37:04.994Z,12.66
2024-01-20T16:39:31.681Z,12.66
2024-01-20T16:41:58.767Z,12.66
2024-01-20T16:44:26.634Z,12.66
2024-01-20T16:46:53.576Z,12.66
2024-01-20T16:49:21.453Z,12.66
2024-01-20T16:51:48.320Z,12.66
2024-01-20T16:54:15.091Z,12.65
2024-01-20T16:56:41.871Z,12.66
2024-01-20T16:59:09.981Z,12.65
2024-01-20T17:01:37.837Z,12.65
2024-01-20T17:04:04.770Z,12.65
2024-01-20T17:06:33.669Z,12.65
2024-01-20T17:09:01.541Z,12.64
2024-01-20T17:11:28.246Z,12.64
2024-01-20T17:13:55.304Z,12.63
2024-01-20T17:16:22.054Z,12.63
2024-01-20T17:18:48.759Z,12.62
2024-01-20T17:21:16.937Z,12.62
2024-01-20T17:23:44.194Z,12.62
2024-01-20T17:26:11.747Z,12.62
2024-01-20T17:28:38.392Z,12.62
2024-01-20T17:31:06.040Z,12.62
2024-01-20T17:33:32.654Z,12.61
2024-01-20T17:35:59.535Z,12.61
2024-01-20T17:38:26.059Z,12.61
2024-01-20T17:40:52.898Z,12.61
2024-01-20T17:43:21.372Z,12.61
2024-01-20T17:45:51.357Z,12.60
2024-01-20T17:48:18.933Z,12.61
2024-01-20T17:50:45.582Z,12.60
2024-01-20T17:53:13.346Z,12.60
2024-01-20T17:55:41.312Z,12.60
2024-01-20T17:58:09.789Z,12.60
2024-01-20T18:00:36.855Z,12.60
2024-01-20T18:03:04.546Z,12.60
2024-01-20T18:05:31.205Z,12.59
2024-01-20T18:07:57.972Z,12.60
2024-01-20T18:10:24.510Z,12.60
2024-01-20T18:12:51.052Z,12.60
2024-01-20T18:15:17.704Z,12.59
2024-01-20T18:17:45.784Z,12.60
2024-01-20T18:20:13.728Z,12.59
2024-01-20T18:22:40.255Z,12.59
2024-01-20T18:25:07.801Z,12.59
2024-01-20T18:27:34.756Z,12.60
2024-01-20T18:30:01.732Z,12.59
2024-01-20T18:32:28.919Z,12.59
2024-01-20T18:34:55.899Z,12.60
2024-01-20T18:37:23.344Z,12.60
2024-01-20T18:39:49.886Z,12.60
2024-01-20T18:42:20.111Z,12.60
2024-01-20T18:44:48.179Z,12.59
2024-01-20T18:47:15.432Z,12.60
2024-01-20T18:49:42.156Z,12.59
2024-01-20T18:52:08.793Z,12.59
2024-01-20T18:54:37.904Z,12.59
2024-01-20T18:57:06.181Z,12.59
2024-01-20T18:59:32.896Z,12.58
2024-01-20T19:02:00.048Z,12.58
2024-01-20T19:04:27.779Z,12.58
2024-01-20T19:06:54.857Z,12.57
2024-01-20T19:09:21.404Z,12.57
2024-01-20T19:11:48.036Z,12.57
2024-01-20T19:14:14.893Z,12.56
2024-01-20T19:16:41.405Z,12.56
2024-01-20T19:19:08.330Z,12.56
2024-01-20T19:21:35.213Z,12.55
2024-01-20T19:24:03.808Z,12.54
2024-01-20T19:26:30.512Z,12.54
2024-01-20T19:28:57.149Z,12.54
2024-01-20T19:31:23.684Z,12.54
2024-01-20T19:33:53.809Z,12.53
2024-01-20T19:36:21.233Z,12.53
2024-01-20T19:38:48.323Z,12.53
2024-01-20T19:41:15.861Z,12.53
2024-01-20T19:43:42.498Z,12.52
2024-01-20T19:46:09.033Z,12.52
2024-01-20T19:48:35.660Z,12.53
2024-01-20T19:51:02.307Z,12.52
2024-01-20T19:53:29.051Z,12.53
2024-01-20T19:55:55.683Z,12.52
2024-01-20T19:58:22.419Z,12.52
2024-01-20T20:00:50.716Z,12.52
2024-01-20T20:03:17.848Z,12.51
2024-01-20T20:05:45.313Z,12.51
2024-01-20T20:08:12.860Z,12.51
2024-01-20T20:10:39.512Z,12.51
2024-01-20T20:13:06.158Z,12.50
2024-01-20T20:15:32.829Z,12.50
2024-01-20T20:17:59.888Z,12.50
2024-01-20T20:20:26.755Z,12.49
2024-01-20T20:22:53.392Z,12.49
2024-01-20T20:25:19.925Z,12.48
2024-01-20T20:27:46.700Z,12.48
2024-01-20T20:30:14.898Z,12.47
2024-01-20T20:32:41.731Z,12.47
2024-01-20T20:35:08.929Z,12.46
2024-01-20T20:37:35.464Z,12.47
2024-01-20T20:40:03.842Z,12.46
2024-01-20T20:42:30.791Z,12.46
2024-01-20T20:44:57.529Z,12.46
2024-01-20T20:47:24.056Z,12.45
2024-01-20T20:49:51.147Z,12.45
2024-01-20T20:52:18.056Z,12.45
2024-01-20T20:54:44.771Z,12.45
2024-01-20T20:57:11.573Z,12.44
2024-01-20T20:59:39.396Z,12.44
2024-01-20T21:02:07.884Z,12.44
2024-01-20T21:04:34.559Z,12.43
2024-01-20T21:07:01.370Z,12.43
2024-01-20T21:09:28.142Z,12.42
2024-01-20T21:11:55.028Z,12.42
2024-01-20T21:14:21.888Z,12.41
2024-01-20T21:16:48.415Z,12.40
2024-01-20T21:19:15.334Z,12.39
2024-01-20T21:21:42.125Z,12.39
2024-01-20T21:24:09.570Z,12.39
2024-01-20T21:26:36.401Z,12.38
2024-01-20T21:29:03.329Z,12.38
2024-01-20T21:31:30.733Z,12.37
2024-01-20T21:33:57.413Z,12.36
2024-01-20T21:36:25.206Z,12.36
2024-01-20T21:38:51.816Z,12.35
2024-01-20T21:41:19.684Z,12.35
2024-01-20T21:43:46.228Z,12.34
2024-01-20T21:46:12.752Z,12.34
2024-01-20T21:48:39.944Z,12.34
2024-01-20T21:51:06.664Z,12.33
2024-01-20T21:53:33.271Z,12.33
2024-01-20T21:55:59.808Z,12.34
2024-01-20T21:58:26.858Z,12.33
2024-01-20T22:00:53.698Z,12.33
2024-01-20T22:03:20.486Z,12.33
2024-01-20T22:05:47.208Z,12.32
2024-01-20T22:08:13.711Z,12.32
2024-01-20T22:10:40.344Z,12.32
2024-01-20T22:13:07.100Z,12.32
2024-01-20T22:15:33.972Z,12.32
2024-01-20T22:18:01.056Z,12.31
2024-01-20T22:20:27.708Z,12.31
2024-01-20T22:22:54.365Z,12.31
2024-01-20T22:25:21.103Z,12.31
2024-01-20T22:27:47.693Z,12.31
2024-01-20T22:30:15.231Z,12.32
2024-01-20T22:32:42.089Z,12.31
2024-01-20T22:35:08.726Z,12.31
2024-01-20T22:37:35.507Z,12.31
2024-01-20T22:40:03.071Z,12.31
2024-01-20T22:42:30.730Z,12.31
2024-01-20T22:44:57.236Z,12.31
2024-01-20T22:47:23.852Z,12.32
2024-01-20T22:49:50.758Z,12.31
2024-01-20T22:52:17.560Z,12.32
2024-01-20T22:54:45.313Z,12.32
2024-01-20T22:57:12.187Z,12.32
2024-01-20T22:59:38.965Z,12.32
2024-01-20T23:02:05.537Z,12.32
2024-01-20T23:04:32.820Z,12.31
2024-01-20T23:06:59.697Z,12.32
2024-01-20T23:09:26.918Z,12.32
2024-01-20T23:11:53.730Z,12.33
2024-01-20T23:14:20.472Z,12.33
2024-01-20T23:16:47.358Z,12.33
2024-01-20T23:19:14.227Z,12.33
2024-01-20T23:21:41.012Z,12.33
2024-01-20T23:24:07.549Z,12.33
2024-01-20T23:26:34.053Z,12.33
2024-01-20T23:29:00.599Z,12.34
2024-01-20T23:31:27.277Z,12.34
2024-01-20T23:33:54.217Z,12.34
2024-01-20T23:36:21.045Z,12.34
2024-01-20T23:38:47.544Z,12.34
2024-01-20T23:41:14.181Z,12.34
2024-01-20T23:43:41.029Z,12.34
2024-01-20T23:46:10.476Z,12.34
2024-01-20T23:48:37.107Z,12.34
2024-01-20T23:51:04.629Z,12.34
2024-01-20T23:53:31.265Z,12.34
2024-01-20T23:55:57.747Z,12.35
2024-01-20T23:58:24.732Z,12.34
